PWSweather.com
Personal Weather Stations
Station Observations
KIDJEROME
Sse Jerome Butte , Jerome, ID 83338

Sse Jerome Butte Jerome, ID 83338

Lat: 42.6981891, Lon: -114.4041362

Elevation: 3960

Station Type: Davis Vantage Pro 2

High Low Average
Temperature 42.1°F5.6°F 24.2°F-4.3°F 32.1°F0.1°F
Dew Point 25.1°F-3.8°F 19.1°F-7.2°F 22.4°F-5.3°F
Winds 10.0 mph NE16.1 mph NE Calm Calm 4.5 mph 7.2 mph
Wind Gusts 14.0 mph22.5 mph 1.0 mph1.6 mph 7.3 mph11.7 mph
Humidity 88% 40% 69%
Pressure 30.50 in1032.80 in 30.35 in1027.80 in -
Precipitation 0.00 in0.00 in - -
Hour Temp Dew Point Humidity Winds Wind Gusts Pressure Precip Precip Rate Daily Precip Total
12:00 AM 28.4°F-2.0°C 24.2°F-4.3°C 84% 4.0 mph W6.4 kmh W 6.0 mph9.7 kmh 30.38 in1028.8 mb 0.00 in0.0 mm 0.00 in0.0 mm 0.00 in0.0 mm
12:15 AM 28.7°F-1.8°C 24.8°F-4.0°C 85% 4.0 mph WSW6.4 kmh WSW 6.0 mph9.7 kmh 30.39 in1029.1 mb 0.00 in0.0 mm 0.00 in0.0 mm 0.00 in0.0 mm
12:30 AM 28.5°F-1.9°C 24.6°F-4.1°C 85% 5.0 mph W8.0 kmh W 8.0 mph12.9 kmh 30.39 in1029.1 mb 0.00 in0.0 mm 0.00 in0.0 mm 0.00 in0.0 mm
12:45 AM 28.8°F-1.8°C 24.3°F-4.3°C 83% 6.0 mph W9.7 kmh W 12.0 mph19.3 kmh 30.38 in1028.8 mb 0.00 in0.0 mm 0.00 in0.0 mm 0.00 in0.0 mm
01:00 AM 29.0°F-1.7°C 24.2°F-4.3°C 82% 8.0 mph W12.9 kmh W 12.0 mph19.3 kmh 30.38 in1028.8 mb 0.00 in0.0 mm 0.00 in0.0 mm 0.00 in0.0 mm
01:15 AM 28.5°F-1.9°C 24.0°F-4.4°C 83% 8.0 mph W12.9 kmh W 10.0 mph16.1 kmh 30.39 in1029.1 mb 0.00 in0.0 mm 0.00 in0.0 mm 0.00 in0.0 mm
01:30 AM 27.9°F-2.3°C 23.4°F-4.8°C 83% 4.0 mph W6.4 kmh W 6.0 mph9.7 kmh 30.41 in1029.8 mb 0.00 in0.0 mm 0.00 in0.0 mm 0.00 in0.0 mm
01:45 AM 27.3°F-2.6°C 23.4°F-4.8°C 85% 4.0 mph WNW6.4 kmh WNW 7.0 mph11.3 kmh 30.40 in1029.5 mb 0.00 in0.0 mm 0.00 in0.0 mm 0.00 in0.0 mm
02:00 AM 27.6°F-2.4°C 23.7°F-4.6°C 85% 6.0 mph W9.7 kmh W 10.0 mph16.1 kmh 30.40 in1029.5 mb 0.00 in0.0 mm 0.00 in0.0 mm 0.00 in0.0 mm
02:15 AM 27.8°F-2.3°C 23.3°F-4.8°C 83% 4.0 mph W6.4 kmh W 4.0 mph6.4 kmh 30.41 in1029.8 mb 0.00 in0.0 mm 0.00 in0.0 mm 0.00 in0.0 mm
02:30 AM 27.3°F-2.6°C 23.1°F-4.9°C 84% 2.0 mph WSW3.2 kmh WSW 4.0 mph6.4 kmh 30.42 in1030.1 mb 0.00 in0.0 mm 0.00 in0.0 mm 0.00 in0.0 mm
02:45 AM 26.0°F-3.3°C 22.1°F-5.5°C 85% 2.0 mph SW3.2 kmh SW 3.0 mph4.8 kmh 30.42 in1030.1 mb 0.00 in0.0 mm 0.00 in0.0 mm 0.00 in0.0 mm
03:00 AM 25.3°F-3.7°C 21.7°F-5.7°C 86% 3.0 mph SW4.8 kmh SW 4.0 mph6.4 kmh 30.42 in1030.1 mb 0.00 in0.0 mm 0.00 in0.0 mm 0.00 in0.0 mm
03:15 AM 25.1°F-3.8°C 21.8°F-5.7°C 87% 2.0 mph SW3.2 kmh SW 4.0 mph6.4 kmh 30.43 in1030.5 mb 0.00 in0.0 mm 0.00 in0.0 mm 0.00 in0.0 mm
03:30 AM 25.1°F-3.8°C 22.0°F-5.6°C 88% 1.0 mph SW1.6 kmh SW 4.0 mph6.4 kmh 30.44 in1030.8 mb 0.00 in0.0 mm 0.00 in0.0 mm 0.00 in0.0 mm
03:45 AM 24.7°F-4.1°C 21.7°F-5.7°C 88% 1.0 mph SW1.6 kmh SW 4.0 mph6.4 kmh 30.43 in1030.5 mb 0.00 in0.0 mm 0.00 in0.0 mm 0.00 in0.0 mm
04:00 AM 25.3°F-3.7°C 22.0°F-5.6°C 87% 2.0 mph SW3.2 kmh SW 3.0 mph4.8 kmh 30.44 in1030.8 mb 0.00 in0.0 mm 0.00 in0.0 mm 0.00 in0.0 mm
04:15 AM 25.0°F-3.9°C 21.4°F-5.9°C 86% 2.0 mph SW3.2 kmh SW 4.0 mph6.4 kmh 30.44 in1030.8 mb 0.00 in0.0 mm 0.00 in0.0 mm 0.00 in0.0 mm
04:30 AM 25.7°F-3.5°C 22.1°F-5.5°C 86% 2.0 mph WSW3.2 kmh WSW 7.0 mph11.3 kmh 30.45 in1031.2 mb 0.00 in0.0 mm 0.00 in0.0 mm 0.00 in0.0 mm
04:45 AM 26.7°F-2.9°C 22.2°F-5.4°C 83% 6.0 mph W9.7 kmh W 8.0 mph12.9 kmh 30.44 in1030.8 mb 0.00 in0.0 mm 0.00 in0.0 mm 0.00 in0.0 mm
05:00 AM 27.0°F-2.8°C 21.9°F-5.6°C 81% 6.0 mph W9.7 kmh W 8.0 mph12.9 kmh 30.44 in1030.8 mb 0.00 in0.0 mm 0.00 in0.0 mm 0.00 in0.0 mm
05:15 AM 27.0°F-2.8°C 21.7°F-5.7°C 80% 7.0 mph W11.3 kmh W 9.0 mph14.5 kmh 30.45 in1031.2 mb 0.00 in0.0 mm 0.00 in0.0 mm 0.00 in0.0 mm
05:30 AM 26.3°F-3.2°C 21.0°F-6.1°C 80% 4.0 mph W6.4 kmh W 6.0 mph9.7 kmh 30.45 in1031.2 mb 0.00 in0.0 mm 0.00 in0.0 mm 0.00 in0.0 mm
05:45 AM 25.4°F-3.7°C 20.7°F-6.3°C 82% 4.0 mph S6.4 kmh S 7.0 mph11.3 kmh 30.45 in1031.2 mb 0.00 in0.0 mm 0.00 in0.0 mm 0.00 in0.0 mm
06:00 AM 24.2°F-4.3°C 19.8°F-6.8°C 83% 2.0 mph SSW3.2 kmh SSW 5.0 mph8.0 kmh 30.45 in1031.2 mb 0.00 in0.0 mm 0.00 in0.0 mm 0.00 in0.0 mm
06:15 AM 24.4°F-4.2°C 19.7°F-6.8°C 82% 2.0 mph SW3.2 kmh SW 3.0 mph4.8 kmh 30.46 in1031.5 mb 0.00 in0.0 mm 0.00 in0.0 mm 0.00 in0.0 mm
06:30 AM 24.4°F-4.2°C 19.4°F-7.0°C 81% 2.0 mph SW3.2 kmh SW 3.0 mph4.8 kmh 30.45 in1031.2 mb 0.00 in0.0 mm 0.00 in0.0 mm 0.00 in0.0 mm
06:45 AM 24.4°F-4.2°C 19.4°F-7.0°C 81% 1.0 mph SW1.6 kmh SW 1.0 mph1.6 kmh 30.46 in1031.5 mb 0.00 in0.0 mm 0.00 in0.0 mm 0.00 in0.0 mm
07:00 AM 24.4°F-4.2°C 19.1°F-7.2°C 80% 1.0 mph SW1.6 kmh SW 3.0 mph4.8 kmh 30.46 in1031.5 mb 0.00 in0.0 mm 0.00 in0.0 mm 0.00 in0.0 mm
07:15 AM 24.4°F-4.2°C 19.1°F-7.2°C 80% 3.0 mph SW4.8 kmh SW 4.0 mph6.4 kmh 30.47 in1031.8 mb 0.00 in0.0 mm 0.00 in0.0 mm 0.00 in0.0 mm
07:30 AM 24.8°F-4.0°C 19.2°F-7.1°C 79% 3.0 mph WSW4.8 kmh WSW 4.0 mph6.4 kmh 30.47 in1031.8 mb 0.00 in0.0 mm 0.00 in0.0 mm 0.00 in0.0 mm
07:45 AM 25.7°F-3.5°C 19.5°F-6.9°C 77% 3.0 mph WSW4.8 kmh WSW 3.0 mph4.8 kmh 30.48 in1032.2 mb 0.00 in0.0 mm 0.00 in0.0 mm 0.00 in0.0 mm
08:00 AM 26.4°F-3.1°C 19.9°F-6.7°C 76% 2.0 mph WSW3.2 kmh WSW 4.0 mph6.4 kmh 30.48 in1032.2 mb 0.00 in0.0 mm 0.00 in0.0 mm 0.00 in0.0 mm
08:15 AM 27.3°F-2.6°C 21.0°F-6.1°C 77% 2.0 mph WSW3.2 kmh WSW 3.0 mph4.8 kmh 30.48 in1032.2 mb 0.00 in0.0 mm 0.00 in0.0 mm 0.00 in0.0 mm
08:30 AM 28.5°F-1.9°C 21.6°F-5.8°C 75% 3.0 mph WSW4.8 kmh WSW 4.0 mph6.4 kmh 30.49 in1032.5 mb 0.00 in0.0 mm 0.00 in0.0 mm 0.00 in0.0 mm
08:45 AM 29.4°F-1.4°C 21.8°F-5.7°C 73% 2.0 mph WSW3.2 kmh WSW 3.0 mph4.8 kmh 30.49 in1032.5 mb 0.00 in0.0 mm 0.00 in0.0 mm 0.00 in0.0 mm
09:00 AM 30.1°F-1.1°C 21.5°F-5.8°C 70% Calm Calm 2.0 mph3.2 kmh 30.49 in1032.5 mb 0.00 in0.0 mm 0.00 in0.0 mm 0.00 in0.0 mm
09:15 AM 29.7°F-1.3°C 22.7°F-5.2°C 75% 3.0 mph SE4.8 kmh SE 4.0 mph6.4 kmh 30.49 in1032.5 mb 0.00 in0.0 mm 0.00 in0.0 mm 0.00 in0.0 mm
09:30 AM 29.7°F-1.3°C 22.1°F-5.5°C 73% 3.0 mph SE4.8 kmh SE 3.0 mph4.8 kmh 30.50 in1032.8 mb 0.00 in0.0 mm 0.00 in0.0 mm 0.00 in0.0 mm
09:45 AM 31.2°F-0.4°C 21.9°F-5.6°C 68% 2.0 mph SE3.2 kmh SE 4.0 mph6.4 kmh 30.49 in1032.5 mb 0.00 in0.0 mm 0.00 in0.0 mm 0.00 in0.0 mm
10:00 AM 31.6°F-0.2°C 22.6°F-5.2°C 69% 4.0 mph E6.4 kmh E 5.0 mph8.0 kmh 30.49 in1032.5 mb 0.00 in0.0 mm 0.00 in0.0 mm 0.00 in0.0 mm
10:15 AM 32.9°F0.5°C 23.5°F-4.7°C 68% 3.0 mph E4.8 kmh E 4.0 mph6.4 kmh 30.50 in1032.8 mb 0.00 in0.0 mm 0.00 in0.0 mm 0.00 in0.0 mm
10:30 AM 34.6°F1.4°C 24.0°F-4.4°C 65% 2.0 mph E3.2 kmh E 4.0 mph6.4 kmh 30.50 in1032.8 mb 0.00 in0.0 mm 0.00 in0.0 mm 0.00 in0.0 mm
10:45 AM 35.9°F2.2°C 24.1°F-4.4°C 62% 2.0 mph E3.2 kmh E 4.0 mph6.4 kmh 30.50 in1032.8 mb 0.00 in0.0 mm 0.00 in0.0 mm 0.00 in0.0 mm
11:00 AM 35.9°F2.2°C 23.4°F-4.8°C 60% 3.0 mph E4.8 kmh E 4.0 mph6.4 kmh 30.50 in1032.8 mb 0.00 in0.0 mm 0.00 in0.0 mm 0.00 in0.0 mm
11:15 AM 37.0°F2.8°C 23.2°F-4.9°C 57% 2.0 mph E3.2 kmh E 4.0 mph6.4 kmh 30.50 in1032.8 mb 0.00 in0.0 mm 0.00 in0.0 mm 0.00 in0.0 mm
11:30 AM 37.8°F3.2°C 25.1°F-3.8°C 60% 2.0 mph E3.2 kmh E 6.0 mph9.7 kmh 30.50 in1032.8 mb 0.00 in0.0 mm 0.00 in0.0 mm 0.00 in0.0 mm
11:45 AM 38.3°F3.5°C 23.5°F-4.7°C 55% 3.0 mph E4.8 kmh E 7.0 mph11.3 kmh 30.49 in1032.5 mb 0.00 in0.0 mm 0.00 in0.0 mm 0.00 in0.0 mm
12:00 PM 39.2°F4.0°C 24.4°F-4.2°C 55% 3.0 mph SE4.8 kmh SE 8.0 mph12.9 kmh 30.49 in1032.5 mb 0.00 in0.0 mm 0.00 in0.0 mm 0.00 in0.0 mm
12:15 PM 39.6°F4.2°C 22.9°F-5.1°C 51% 3.0 mph SE4.8 kmh SE 5.0 mph8.0 kmh 30.47 in1031.8 mb 0.00 in0.0 mm 0.00 in0.0 mm 0.00 in0.0 mm
12:30 PM 40.3°F4.6°C 23.1°F-4.9°C 50% 2.0 mph SE3.2 kmh SE 3.0 mph4.8 kmh 30.46 in1031.5 mb 0.00 in0.0 mm 0.00 in0.0 mm 0.00 in0.0 mm
12:45 PM 40.3°F4.6°C 23.6°F-4.7°C 51% 2.0 mph SE3.2 kmh SE 6.0 mph9.7 kmh 30.46 in1031.5 mb 0.00 in0.0 mm 0.00 in0.0 mm 0.00 in0.0 mm
01:00 PM 40.6°F4.8°C 22.4°F-5.3°C 48% 1.0 mph E1.6 kmh E 7.0 mph11.3 kmh 30.45 in1031.2 mb 0.00 in0.0 mm 0.00 in0.0 mm 0.00 in0.0 mm
01:15 PM 41.1°F5.1°C 23.9°F-4.5°C 50% 3.0 mph ENE4.8 kmh ENE 9.0 mph14.5 kmh 30.44 in1030.8 mb 0.00 in0.0 mm 0.00 in0.0 mm 0.00 in0.0 mm
01:30 PM 40.9°F4.9°C 22.2°F-5.4°C 47% 4.0 mph E6.4 kmh E 8.0 mph12.9 kmh 30.43 in1030.5 mb 0.00 in0.0 mm 0.00 in0.0 mm 0.00 in0.0 mm
01:45 PM 41.2°F5.1°C 22.5°F-5.3°C 47% 3.0 mph E4.8 kmh E 8.0 mph12.9 kmh 30.43 in1030.5 mb 0.00 in0.0 mm 0.00 in0.0 mm 0.00 in0.0 mm
02:00 PM 41.6°F5.3°C 22.8°F-5.1°C 47% 3.0 mph E4.8 kmh E 8.0 mph12.9 kmh 30.42 in1030.1 mb 0.00 in0.0 mm 0.00 in0.0 mm 0.00 in0.0 mm
02:15 PM 41.9°F5.5°C 19.9°F-6.7°C 41% 5.0 mph SE8.0 kmh SE 10.0 mph16.1 kmh 30.42 in1030.1 mb 0.00 in0.0 mm 0.00 in0.0 mm 0.00 in0.0 mm
02:30 PM 41.8°F5.4°C 20.9°F-6.2°C 43% 4.0 mph E6.4 kmh E 7.0 mph11.3 kmh 30.42 in1030.1 mb 0.00 in0.0 mm 0.00 in0.0 mm 0.00 in0.0 mm
02:45 PM 42.1°F5.6°C 19.5°F-6.9°C 40% 5.0 mph E8.0 kmh E 8.0 mph12.9 kmh 30.42 in1030.1 mb 0.00 in0.0 mm 0.00 in0.0 mm 0.00 in0.0 mm
03:00 PM 41.5°F5.3°C 20.6°F-6.3°C 43% 5.0 mph E8.0 kmh E 9.0 mph14.5 kmh 30.41 in1029.8 mb 0.00 in0.0 mm 0.00 in0.0 mm 0.00 in0.0 mm
03:15 PM 41.9°F5.5°C 21.5°F-5.8°C 44% 4.0 mph E6.4 kmh E 8.0 mph12.9 kmh 30.41 in1029.8 mb 0.00 in0.0 mm 0.00 in0.0 mm 0.00 in0.0 mm
03:30 PM 41.8°F5.4°C 22.0°F-5.6°C 45% 4.0 mph E6.4 kmh E 6.0 mph9.7 kmh 30.40 in1029.5 mb 0.00 in0.0 mm 0.00 in0.0 mm 0.00 in0.0 mm
03:45 PM 41.2°F5.1°C 22.0°F-5.6°C 46% 5.0 mph E8.0 kmh E 8.0 mph12.9 kmh 30.40 in1029.5 mb 0.00 in0.0 mm 0.00 in0.0 mm 0.00 in0.0 mm
04:00 PM 40.5°F4.7°C 24.2°F-4.3°C 52% 3.0 mph E4.8 kmh E 4.0 mph6.4 kmh 30.40 in1029.5 mb 0.00 in0.0 mm 0.00 in0.0 mm 0.00 in0.0 mm
04:15 PM 40.1°F4.5°C 24.3°F-4.3°C 53% 3.0 mph E4.8 kmh E 4.0 mph6.4 kmh 30.39 in1029.1 mb 0.00 in0.0 mm 0.00 in0.0 mm 0.00 in0.0 mm
04:30 PM 39.3°F4.1°C 23.1°F-4.9°C 52% 3.0 mph E4.8 kmh E 4.0 mph6.4 kmh 30.39 in1029.1 mb 0.00 in0.0 mm 0.00 in0.0 mm 0.00 in0.0 mm
04:45 PM 39.1°F3.9°C 21.0°F-6.1°C 48% 3.0 mph ENE4.8 kmh ENE 5.0 mph8.0 kmh 30.39 in1029.1 mb 0.00 in0.0 mm 0.00 in0.0 mm 0.00 in0.0 mm
05:00 PM 38.3°F3.5°C 19.8°F-6.8°C 47% 4.0 mph NE6.4 kmh NE 6.0 mph9.7 kmh 30.39 in1029.1 mb 0.00 in0.0 mm 0.00 in0.0 mm 0.00 in0.0 mm
05:15 PM 37.5°F3.1°C 20.1°F-6.6°C 49% 4.0 mph NE6.4 kmh NE 7.0 mph11.3 kmh 30.38 in1028.8 mb 0.00 in0.0 mm 0.00 in0.0 mm 0.00 in0.0 mm
05:30 PM 36.2°F2.3°C 21.1°F-6.1°C 54% 5.0 mph NE8.0 kmh NE 8.0 mph12.9 kmh 30.37 in1028.4 mb 0.00 in0.0 mm 0.00 in0.0 mm 0.00 in0.0 mm
05:45 PM 35.3°F1.8°C 21.6°F-5.8°C 57% 6.0 mph NE9.7 kmh NE 10.0 mph16.1 kmh 30.38 in1028.8 mb 0.00 in0.0 mm 0.00 in0.0 mm 0.00 in0.0 mm
06:00 PM 34.1°F1.2°C 23.6°F-4.7°C 65% 7.0 mph NE11.3 kmh NE 11.0 mph17.7 kmh 30.37 in1028.4 mb 0.00 in0.0 mm 0.00 in0.0 mm 0.00 in0.0 mm
06:15 PM 33.5°F0.8°C 23.7°F-4.6°C 67% 9.0 mph NE14.5 kmh NE 11.0 mph17.7 kmh 30.37 in1028.4 mb 0.00 in0.0 mm 0.00 in0.0 mm 0.00 in0.0 mm
06:30 PM 33.2°F0.7°C 24.1°F-4.4°C 69% 8.0 mph NE12.9 kmh NE 11.0 mph17.7 kmh 30.37 in1028.4 mb 0.00 in0.0 mm 0.00 in0.0 mm 0.00 in0.0 mm
06:45 PM 33.4°F0.8°C 24.0°F-4.4°C 68% 8.0 mph NE12.9 kmh NE 12.0 mph19.3 kmh 30.37 in1028.4 mb 0.00 in0.0 mm 0.00 in0.0 mm 0.00 in0.0 mm
07:00 PM 33.1°F0.6°C 23.7°F-4.6°C 68% 9.0 mph NE14.5 kmh NE 12.0 mph19.3 kmh 30.37 in1028.4 mb 0.00 in0.0 mm 0.00 in0.0 mm 0.00 in0.0 mm
07:15 PM 33.1°F0.6°C 23.7°F-4.6°C 68% 9.0 mph NE14.5 kmh NE 12.0 mph19.3 kmh 30.36 in1028.1 mb 0.00 in0.0 mm 0.00 in0.0 mm 0.00 in0.0 mm
07:30 PM 32.9°F0.5°C 23.1°F-4.9°C 67% 7.0 mph NE11.3 kmh NE 11.0 mph17.7 kmh 30.36 in1028.1 mb 0.00 in0.0 mm 0.00 in0.0 mm 0.00 in0.0 mm
07:45 PM 33.4°F0.8°C 23.3°F-4.8°C 66% 9.0 mph NE14.5 kmh NE 13.0 mph20.9 kmh 30.36 in1028.1 mb 0.00 in0.0 mm 0.00 in0.0 mm 0.00 in0.0 mm
08:00 PM 32.9°F0.5°C 23.1°F-4.9°C 67% 10.0 mph NE16.1 kmh NE 13.0 mph20.9 kmh 30.36 in1028.1 mb 0.00 in0.0 mm 0.00 in0.0 mm 0.00 in0.0 mm
08:15 PM 32.7°F0.4°C 23.3°F-4.8°C 68% 8.0 mph NE12.9 kmh NE 11.0 mph17.7 kmh 30.35 in1027.8 mb 0.00 in0.0 mm 0.00 in0.0 mm 0.00 in0.0 mm
08:30 PM 32.7°F0.4°C 23.3°F-4.8°C 68% 8.0 mph NE12.9 kmh NE 12.0 mph19.3 kmh 30.35 in1027.8 mb 0.00 in0.0 mm 0.00 in0.0 mm 0.00 in0.0 mm
08:45 PM 31.9°F-0.1°C 23.2°F-4.9°C 70% 8.0 mph NE12.9 kmh NE 13.0 mph20.9 kmh 30.36 in1028.1 mb 0.00 in0.0 mm 0.00 in0.0 mm 0.00 in0.0 mm
09:00 PM 31.9°F-0.1°C 23.9°F-4.5°C 72% 8.0 mph E12.9 kmh E 14.0 mph22.5 kmh 30.35 in1027.8 mb 0.00 in0.0 mm 0.00 in0.0 mm 0.00 in0.0 mm
09:15 PM 31.8°F-0.1°C 23.5°F-4.7°C 71% 8.0 mph E12.9 kmh E 11.0 mph17.7 kmh 30.36 in1028.1 mb 0.00 in0.0 mm 0.00 in0.0 mm 0.00 in0.0 mm
09:30 PM 31.2°F-0.4°C 23.2°F-4.9°C 72% 7.0 mph NE11.3 kmh NE 11.0 mph17.7 kmh 30.36 in1028.1 mb 0.00 in0.0 mm 0.00 in0.0 mm 0.00 in0.0 mm
09:45 PM 31.0°F-0.6°C 23.4°F-4.8°C 73% 7.0 mph NE11.3 kmh NE 11.0 mph17.7 kmh 30.35 in1027.8 mb 0.00 in0.0 mm 0.00 in0.0 mm 0.00 in0.0 mm
10:00 PM 30.6°F-0.8°C 23.3°F-4.8°C 74% 6.0 mph NE9.7 kmh NE 10.0 mph16.1 kmh 30.35 in1027.8 mb 0.00 in0.0 mm 0.00 in0.0 mm 0.00 in0.0 mm
10:15 PM 30.6°F-0.8°C 23.6°F-4.7°C 75% 8.0 mph NE12.9 kmh NE 13.0 mph20.9 kmh 30.36 in1028.1 mb 0.00 in0.0 mm 0.00 in0.0 mm 0.00 in0.0 mm
10:30 PM 30.3°F-0.9°C 23.3°F-4.8°C 75% 9.0 mph NE14.5 kmh NE 14.0 mph22.5 kmh 30.35 in1027.8 mb 0.00 in0.0 mm 0.00 in0.0 mm 0.00 in0.0 mm
10:45 PM 30.3°F-0.9°C 23.3°F-4.8°C 75% 8.0 mph NE12.9 kmh NE 13.0 mph20.9 kmh 30.35 in1027.8 mb 0.00 in0.0 mm 0.00 in0.0 mm 0.00 in0.0 mm
11:00 PM 31.2°F-0.4°C 23.2°F-4.9°C 72% 9.0 mph NE14.5 kmh NE 14.0 mph22.5 kmh 30.35 in1027.8 mb 0.00 in0.0 mm 0.00 in0.0 mm 0.00 in0.0 mm
11:15 PM 30.4°F-0.9°C 22.4°F-5.3°C 72% 9.0 mph NE14.5 kmh NE 11.0 mph17.7 kmh 30.35 in1027.8 mb 0.00 in0.0 mm 0.00 in0.0 mm 0.00 in0.0 mm
11:30 PM 29.5°F-1.4°C 22.6°F-5.2°C 75% 8.0 mph NE12.9 kmh NE 13.0 mph20.9 kmh 30.35 in1027.8 mb 0.00 in0.0 mm 0.00 in0.0 mm 0.00 in0.0 mm
11:45 PM 29.8°F-1.2°C 22.8°F-5.1°C 75% 8.0 mph NE12.9 kmh NE 14.0 mph22.5 kmh 30.35 in1027.8 mb 0.00 in0.0 mm 0.00 in0.0 mm 0.00 in0.0 mm